createdAt,value
2022-12-24T00:00:57.274Z,59.95
2022-12-24T00:03:30.640Z,64.94
2022-12-24T00:06:07.771Z,67.50
2022-12-24T00:08:41.607Z,65.22
2022-12-24T00:11:15.424Z,63.03
2022-12-24T00:13:48.669Z,61.52
2022-12-24T00:16:21.658Z,60.47
2022-12-24T00:18:54.783Z,58.20
2022-12-24T00:21:27.792Z,57.08
2022-12-24T00:24:04.033Z,58.10
2022-12-24T00:26:37.457Z,59.84
2022-12-24T00:29:10.541Z,64.35
2022-12-24T00:31:43.175Z,67.46
2022-12-24T00:34:15.710Z,65.82
2022-12-24T00:36:48.723Z,64.67
2022-12-24T00:39:21.304Z,63.48
2022-12-24T00:41:53.840Z,62.30
2022-12-24T00:44:26.452Z,61.40
2022-12-24T00:46:59.045Z,60.75
2022-12-24T00:49:31.579Z,60.33
2022-12-24T00:52:04.413Z,59.71
2022-12-24T00:54:37.109Z,57.70
2022-12-24T00:57:09.641Z,56.88
2022-12-24T00:59:42.833Z,58.30
2022-12-24T01:02:16.000Z,60.34
2022-12-24T01:05:05.938Z,63.55
2022-12-24T01:07:38.819Z,67.29
2022-12-24T01:10:14.216Z,65.90
2022-12-24T01:12:48.055Z,64.94
2022-12-24T01:15:20.621Z,64.53
2022-12-24T01:17:53.145Z,64.33
2022-12-24T01:20:31.721Z,63.80
2022-12-24T01:23:04.306Z,63.10
2022-12-24T01:25:38.691Z,62.25
2022-12-24T01:28:11.138Z,61.82
2022-12-24T01:30:46.167Z,61.30
2022-12-24T01:33:18.714Z,60.37
2022-12-24T01:35:51.174Z,60.01
2022-12-24T01:38:24.390Z,57.56
2022-12-24T01:41:14.173Z,56.48
2022-12-24T01:43:47.263Z,57.82
2022-12-24T01:46:26.450Z,59.95
2022-12-24T01:49:01.408Z,64.66
2022-12-24T01:51:39.088Z,67.44
2022-12-24T01:54:17.457Z,65.88
2022-12-24T01:56:53.589Z,64.01
2022-12-24T01:59:26.331Z,63.27
2022-12-24T02:01:58.980Z,63.26
2022-12-24T02:04:38.245Z,62.62
2022-12-24T02:07:11.483Z,62.17
2022-12-24T02:09:44.116Z,62.54
2022-12-24T02:12:17.018Z,63.18
2022-12-24T02:14:49.752Z,63.13
2022-12-24T02:17:31.013Z,62.56
2022-12-24T02:20:48.203Z,62.17
2022-12-24T02:23:45.381Z,61.89
2022-12-24T02:26:42.751Z,61.09
2022-12-24T02:29:38.899Z,60.65
2022-12-24T02:32:18.683Z,60.43
2022-12-24T02:34:58.559Z,59.96
2022-12-24T02:37:36.061Z,58.19
2022-12-24T02:40:16.634Z,57.35
2022-12-24T02:42:55.474Z,58.43
2022-12-24T02:45:31.957Z,63.13
2022-12-24T02:48:04.711Z,66.06
2022-12-24T02:50:38.303Z,65.06
2022-12-24T02:53:12.458Z,64.06
2022-12-24T02:55:55.621Z,63.32
2022-12-24T02:58:37.242Z,62.60
2022-12-24T03:01:20.858Z,62.52
2022-12-24T03:04:07.182Z,62.22
2022-12-24T03:06:51.898Z,61.56
2022-12-24T03:09:29.445Z,61.30
2022-12-24T03:12:06.196Z,60.93
2022-12-24T03:14:41.778Z,60.74
2022-12-24T03:17:14.557Z,60.49
2022-12-24T03:19:48.364Z,60.37
2022-12-24T03:22:23.959Z,60.08
2022-12-24T03:24:56.729Z,59.67
2022-12-24T03:27:31.388Z,58.44
2022-12-24T03:30:05.493Z,58.04
2022-12-24T03:32:38.034Z,59.77
2022-12-24T03:35:12.681Z,63.40
2022-12-24T03:37:45.321Z,66.74
2022-12-24T03:40:18.180Z,65.63
2022-12-24T03:42:50.671Z,65.19
2022-12-24T03:45:23.239Z,64.43
2022-12-24T03:47:56.409Z,63.69
2022-12-24T03:50:28.869Z,62.70
2022-12-24T03:53:01.308Z,62.18
2022-12-24T03:55:33.841Z,61.55
2022-12-24T03:58:06.332Z,61.11
2022-12-24T04:00:39.938Z,61.12
2022-12-24T04:03:12.591Z,60.87
2022-12-24T04:05:45.217Z,60.81
2022-12-24T04:08:17.851Z,61.03
2022-12-24T04:10:50.318Z,60.94
2022-12-24T04:13:23.201Z,60.79
2022-12-24T04:16:02.126Z,60.78
2022-12-24T04:18:34.964Z,61.00
2022-12-24T04:21:08.383Z,60.90
2022-12-24T04:23:42.566Z,60.79
2022-12-24T04:26:16.662Z,60.72
2022-12-24T04:28:49.156Z,60.99
2022-12-24T04:31:21.864Z,61.11
2022-12-24T04:33:54.884Z,61.08
2022-12-24T04:36:27.561Z,60.56
2022-12-24T04:39:00.291Z,60.66
2022-12-24T04:41:33.360Z,60.65
2022-12-24T04:44:06.052Z,60.21
2022-12-24T04:46:38.784Z,59.83
2022-12-24T04:49:12.141Z,57.98
2022-12-24T04:51:44.657Z,57.26
2022-12-24T04:54:17.652Z,58.37
2022-12-24T04:56:50.297Z,59.87
2022-12-24T04:59:22.849Z,62.92
2022-12-24T05:01:57.315Z,66.11
2022-12-24T05:04:30.194Z,64.72
2022-12-24T05:07:02.969Z,63.50
2022-12-24T05:09:35.927Z,62.95
2022-12-24T05:12:09.041Z,62.52
2022-12-24T05:14:42.175Z,62.16
2022-12-24T05:17:15.302Z,62.05
2022-12-24T05:19:48.132Z,61.83
2022-12-24T05:22:37.947Z,60.98
2022-12-24T05:25:30.217Z,60.68
2022-12-24T05:28:02.851Z,60.20
2022-12-24T05:30:35.688Z,58.02
2022-12-24T05:33:08.565Z,56.77
2022-12-24T05:35:41.478Z,57.84
2022-12-24T05:38:14.873Z,59.18
2022-12-24T05:40:47.909Z,62.38
2022-12-24T05:43:20.752Z,65.69
2022-12-24T05:45:53.511Z,64.52
2022-12-24T05:48:26.196Z,63.60
2022-12-24T05:50:59.728Z,63.27
2022-12-24T05:53:32.263Z,62.28
2022-12-24T05:56:08.630Z,61.09
2022-12-24T05:58:42.030Z,60.17
2022-12-24T06:01:15.904Z,57.73
2022-12-24T06:03:49.985Z,56.53
2022-12-24T06:06:25.706Z,57.52
2022-12-24T06:08:59.186Z,58.87
2022-12-24T06:11:32.053Z,62.05
2022-12-24T06:14:04.823Z,65.67
2022-12-24T06:16:37.880Z,64.98
2022-12-24T06:19:10.839Z,63.68
2022-12-24T06:21:43.516Z,63.35
2022-12-24T06:24:16.209Z,62.76
2022-12-24T06:26:51.632Z,62.63
2022-12-24T06:29:26.517Z,62.43
2022-12-24T06:31:59.930Z,62.11
2022-12-24T06:34:32.672Z,60.88
2022-12-24T06:37:05.744Z,60.86
2022-12-24T06:39:39.071Z,60.36
2022-12-24T06:42:12.039Z,60.00
2022-12-24T06:44:44.671Z,57.84
2022-12-24T06:47:17.219Z,56.94
2022-12-24T06:49:50.024Z,58.09
2022-12-24T06:52:23.965Z,59.45
2022-12-24T06:54:56.780Z,62.60
2022-12-24T06:57:29.657Z,66.82
2022-12-24T07:00:02.464Z,65.58
2022-12-24T07:02:35.619Z,64.13
2022-12-24T07:05:12.937Z,63.59
2022-12-24T07:07:46.881Z,62.74
2022-12-24T07:10:20.158Z,62.01
2022-12-24T07:12:52.949Z,61.51
2022-12-24T07:15:25.622Z,61.13
2022-12-24T07:17:59.164Z,61.08
2022-12-24T07:20:32.031Z,60.82
2022-12-24T07:23:04.673Z,60.49
2022-12-24T07:25:37.472Z,59.82
2022-12-24T07:28:11.004Z,57.97
2022-12-24T07:30:44.117Z,57.26
2022-12-24T07:33:16.750Z,58.48
2022-12-24T07:35:58.581Z,59.89
2022-12-24T07:38:31.607Z,63.66
2022-12-24T07:41:05.263Z,66.77
2022-12-24T07:43:38.210Z,64.80
2022-12-24T07:46:11.024Z,62.81
2022-12-24T07:48:43.725Z,62.27
2022-12-24T07:51:16.571Z,61.48
2022-12-24T07:53:49.156Z,60.87
2022-12-24T07:56:22.938Z,60.38
2022-12-24T07:58:56.019Z,59.94
2022-12-24T08:01:28.652Z,58.25
2022-12-24T08:04:01.319Z,57.08
2022-12-24T08:06:33.863Z,58.28
2022-12-24T08:09:07.096Z,59.79
2022-12-24T08:11:40.396Z,63.29
2022-12-24T08:14:15.789Z,66.70
2022-12-24T08:16:48.672Z,66.15
2022-12-24T08:19:22.580Z,64.98
2022-12-24T08:21:56.062Z,63.64
2022-12-24T08:24:28.909Z,62.94
2022-12-24T08:27:01.612Z,62.34
2022-12-24T08:29:34.291Z,61.40
2022-12-24T08:32:07.474Z,60.49
2022-12-24T08:34:40.661Z,60.72
2022-12-24T08:37:13.520Z,60.37
2022-12-24T08:39:46.112Z,58.42
2022-12-24T08:42:18.694Z,56.71
2022-12-24T08:44:51.804Z,57.38
2022-12-24T08:47:24.307Z,58.61
2022-12-24T08:49:56.959Z,60.11
2022-12-24T08:52:29.646Z,63.65
2022-12-24T08:55:02.286Z,66.62
2022-12-24T08:57:36.817Z,66.00
2022-12-24T09:00:13.533Z,64.38
2022-12-24T09:02:46.366Z,63.01
2022-12-24T09:05:19.467Z,62.57
2022-12-24T09:07:52.159Z,62.12
2022-12-24T09:10:27.692Z,61.59
2022-12-24T09:13:00.504Z,61.81
2022-12-24T09:15:33.385Z,61.32
2022-12-24T09:18:07.049Z,60.58
2022-12-24T09:20:42.786Z,60.28
2022-12-24T09:23:19.080Z,60.65
2022-12-24T09:25:51.741Z,60.89
2022-12-24T09:28:24.963Z,61.01
2022-12-24T09:31:03.044Z,60.76
2022-12-24T09:33:38.991Z,60.20
2022-12-24T09:36:12.006Z,58.31
2022-12-24T09:38:45.631Z,57.60
2022-12-24T09:41:27.021Z,58.86
2022-12-24T09:44:05.809Z,60.18
2022-12-24T09:46:42.340Z,64.59
2022-12-24T09:49:20.093Z,67.23
2022-12-24T09:51:57.206Z,66.42
2022-12-24T09:54:34.202Z,64.50
2022-12-24T09:57:14.113Z,63.12
2022-12-24T09:59:48.412Z,62.23
2022-12-24T10:02:22.679Z,60.98
2022-12-24T10:04:57.366Z,60.27
2022-12-24T10:07:43.754Z,59.76
2022-12-24T10:10:27.220Z,57.93
2022-12-24T10:13:09.610Z,57.28
2022-12-24T10:15:48.296Z,58.80
2022-12-24T10:18:28.864Z,62.85
2022-12-24T10:21:07.651Z,66.16
2022-12-24T10:23:49.065Z,65.46
2022-12-24T10:26:27.843Z,64.87
2022-12-24T10:29:04.065Z,63.83
2022-12-24T10:31:41.619Z,62.75
2022-12-24T10:34:20.556Z,62.45
2022-12-24T10:36:53.535Z,62.45
2022-12-24T10:39:28.302Z,62.64
2022-12-24T10:42:03.624Z,62.72
2022-12-24T10:44:36.644Z,62.19
2022-12-24T10:47:10.899Z,61.91
2022-12-24T10:49:50.103Z,61.70
2022-12-24T10:52:29.157Z,61.57
2022-12-24T10:55:22.426Z,61.76
2022-12-24T10:58:06.234Z,61.90
2022-12-24T11:00:39.878Z,62.38
2022-12-24T11:03:25.934Z,63.02
2022-12-24T11:06:10.777Z,63.61
2022-12-24T11:08:46.873Z,62.36
2022-12-24T11:11:23.649Z,61.68
2022-12-24T11:13:59.122Z,61.64
2022-12-24T11:16:36.564Z,61.43
2022-12-24T11:19:20.165Z,60.85
2022-12-24T11:22:03.010Z,60.17
2022-12-24T11:24:37.957Z,57.14
2022-12-24T11:27:33.129Z,56.47
2022-12-24T11:30:33.905Z,57.36
2022-12-24T11:33:22.291Z,59.18
2022-12-24T11:35:56.070Z,64.46
2022-12-24T11:38:30.727Z,65.95
2022-12-24T11:41:07.677Z,65.54
2022-12-24T11:43:49.678Z,65.33
2022-12-24T11:46:37.894Z,65.33
2022-12-24T11:49:23.820Z,65.22
2022-12-24T11:52:26.536Z,65.26
2022-12-24T11:55:18.836Z,65.29
2022-12-24T11:57:59.675Z,66.36
2022-12-24T12:00:32.581Z,67.41
2022-12-24T12:03:11.954Z,66.29
2022-12-24T12:05:44.715Z,66.19
2022-12-24T12:08:22.976Z,65.65
2022-12-24T12:10:54.871Z,64.83
2022-12-24T12:13:33.539Z,64.58
2022-12-24T12:16:15.601Z,64.56
2022-12-24T12:18:54.827Z,63.59
2022-12-24T12:21:34.583Z,62.58
2022-12-24T12:24:14.440Z,61.50
2022-12-24T12:26:48.786Z,61.41
2022-12-24T12:29:30.419Z,60.95
2022-12-24T12:32:09.540Z,60.83
2022-12-24T12:34:49.307Z,60.45
2022-12-24T12:37:31.407Z,59.92
2022-12-24T12:40:04.456Z,59.26
2022-12-24T12:42:40.033Z,58.45
2022-12-24T12:45:33.399Z,60.05
2022-12-24T12:48:32.406Z,65.15
2022-12-24T12:51:10.663Z,66.82
2022-12-24T12:54:03.083Z,65.05
2022-12-24T12:56:38.265Z,63.49
2022-12-24T12:59:17.752Z,62.49
2022-12-24T13:02:00.089Z,61.63
2022-12-24T13:05:02.460Z,61.40
2022-12-24T13:08:06.261Z,61.37
2022-12-24T13:11:02.326Z,60.64
2022-12-24T13:14:01.492Z,60.56
2022-12-24T13:16:49.731Z,60.29
2022-12-24T13:19:38.530Z,60.30
2022-12-24T13:22:19.225Z,60.45
2022-12-24T13:24:54.500Z,60.48
2022-12-24T13:27:30.655Z,60.81
2022-12-24T13:30:10.289Z,60.54
2022-12-24T13:32:50.943Z,60.60
2022-12-24T13:36:01.465Z,60.79
2022-12-24T13:38:52.657Z,60.95
2022-12-24T13:41:54.118Z,60.91
2022-12-24T13:44:37.144Z,60.84
2022-12-24T13:47:31.577Z,61.05
2022-12-24T13:50:24.620Z,61.35
2022-12-24T13:52:57.795Z,61.19
2022-12-24T13:55:31.115Z,61.17
2022-12-24T13:58:05.943Z,61.36
2022-12-24T14:00:44.270Z,61.49
2022-12-24T14:03:35.024Z,61.50
2022-12-24T14:06:12.151Z,61.36
2022-12-24T14:08:47.534Z,61.37
2022-12-24T14:11:22.659Z,61.29
2022-12-24T14:14:15.722Z,61.29
2022-12-24T14:16:51.969Z,61.24
2022-12-24T14:19:29.982Z,61.05
2022-12-24T14:22:15.819Z,61.24
2022-12-24T14:24:56.631Z,61.22
2022-12-24T14:27:34.982Z,61.22
2022-12-24T14:30:17.986Z,61.07
2022-12-24T14:32:52.290Z,61.14
2022-12-24T14:35:27.991Z,61.19
2022-12-24T14:38:05.001Z,61.19
2022-12-24T14:40:43.123Z,61.12
2022-12-24T14:43:25.031Z,61.23
2022-12-24T14:46:06.324Z,61.17
2022-12-24T14:48:47.053Z,61.15
2022-12-24T14:51:28.675Z,61.06
2022-12-24T14:54:25.970Z,60.79
2022-12-24T14:57:15.656Z,60.70
2022-12-24T14:59:51.190Z,60.67
2022-12-24T15:02:38.212Z,60.44
2022-12-24T15:05:17.272Z,60.51
2022-12-24T15:07:56.996Z,60.72
2022-12-24T15:10:35.677Z,60.62
2022-12-24T15:13:16.286Z,60.79
2022-12-24T15:15:53.056Z,60.84
2022-12-24T15:18:29.184Z,60.90
2022-12-24T15:21:04.877Z,60.87
2022-12-24T15:23:38.801Z,60.82
2022-12-24T15:26:23.412Z,60.68
2022-12-24T15:29:02.697Z,60.65
2022-12-24T15:31:36.000Z,60.56
2022-12-24T15:34:24.957Z,60.28
2022-12-24T15:37:06.621Z,60.33
2022-12-24T15:39:39.812Z,60.46
2022-12-24T15:42:18.836Z,60.46
2022-12-24T15:45:00.914Z,60.62
2022-12-24T15:47:38.897Z,60.91
2022-12-24T15:50:24.017Z,60.99
2022-12-24T15:53:21.139Z,60.86
2022-12-24T15:56:01.081Z,60.79
2022-12-24T15:58:35.641Z,60.55
2022-12-24T16:01:30.321Z,61.13
2022-12-24T16:04:03.126Z,61.18
2022-12-24T16:06:54.984Z,60.66
2022-12-24T16:09:45.779Z,60.81
2022-12-24T16:12:22.392Z,61.42
2022-12-24T16:14:59.125Z,61.52
2022-12-24T16:17:34.772Z,61.39
2022-12-24T16:20:17.422Z,61.03
2022-12-24T16:22:51.672Z,60.84
2022-12-24T16:25:31.959Z,60.58
2022-12-24T16:28:14.048Z,60.54
2022-12-24T16:30:49.185Z,60.25
2022-12-24T16:33:23.545Z,59.98
2022-12-24T16:35:56.251Z,59.70
2022-12-24T16:38:48.917Z,58.53
2022-12-24T16:41:21.387Z,57.87
2022-12-24T16:43:53.989Z,60.26
2022-12-24T16:46:26.498Z,65.07
2022-12-24T16:48:59.407Z,66.85
2022-12-24T16:51:31.928Z,65.12
2022-12-24T16:54:04.519Z,63.59
2022-12-24T16:56:36.988Z,62.47
2022-12-24T16:59:14.792Z,62.01
2022-12-24T17:01:47.708Z,61.65
2022-12-24T17:04:21.193Z,61.49
2022-12-24T17:06:53.841Z,61.33
2022-12-24T17:09:26.283Z,60.90
2022-12-24T17:11:58.768Z,60.28
2022-12-24T17:14:31.840Z,60.09
2022-12-24T17:17:04.851Z,59.75
2022-12-24T17:19:37.621Z,57.92
2022-12-24T17:22:10.130Z,57.47
2022-12-24T17:24:42.907Z,59.96
2022-12-24T17:27:15.894Z,64.79
2022-12-24T17:29:48.441Z,66.87
2022-12-24T17:32:21.023Z,65.37
2022-12-24T17:34:53.543Z,63.83
2022-12-24T17:37:25.986Z,62.70
2022-12-24T17:39:58.494Z,62.04
2022-12-24T17:42:31.122Z,61.55
2022-12-24T17:45:04.180Z,60.75
2022-12-24T17:47:36.692Z,60.32
2022-12-24T17:50:11.144Z,60.01
2022-12-24T17:52:43.757Z,59.77
2022-12-24T17:55:16.329Z,58.35
2022-12-24T17:57:48.925Z,57.68
2022-12-24T18:00:23.374Z,58.75
2022-12-24T18:02:58.244Z,63.46
2022-12-24T18:05:31.370Z,66.41
2022-12-24T18:08:03.867Z,64.96
2022-12-24T18:10:36.334Z,63.33
2022-12-24T18:13:17.337Z,62.10
2022-12-24T18:15:52.172Z,61.45
2022-12-24T18:18:24.800Z,60.76
2022-12-24T18:20:57.388Z,60.07
2022-12-24T18:23:29.898Z,57.90
2022-12-24T18:26:06.947Z,56.94
2022-12-24T18:28:39.474Z,58.19
2022-12-24T18:31:14.989Z,62.68
2022-12-24T18:33:48.983Z,66.05
2022-12-24T18:36:22.180Z,64.99
2022-12-24T18:38:55.148Z,63.49
2022-12-24T18:41:30.530Z,62.33
2022-12-24T18:44:03.402Z,61.52
2022-12-24T18:46:36.319Z,60.86
2022-12-24T18:49:08.854Z,60.45
2022-12-24T18:51:41.688Z,60.37
2022-12-24T18:54:14.275Z,60.07
2022-12-24T18:56:46.794Z,59.93
2022-12-24T18:59:19.324Z,57.97
2022-12-24T19:01:52.226Z,57.22
2022-12-24T19:04:24.873Z,58.81
2022-12-24T19:06:57.667Z,63.45
2022-12-24T19:09:30.151Z,66.70
2022-12-24T19:12:02.679Z,65.32
2022-12-24T19:14:35.559Z,63.99
2022-12-24T19:17:09.121Z,63.16
2022-12-24T19:19:41.691Z,62.60
2022-12-24T19:22:14.165Z,62.18
2022-12-24T19:24:46.662Z,61.76
2022-12-24T19:27:20.121Z,61.91
2022-12-24T19:29:53.180Z,61.95
2022-12-24T19:32:25.690Z,61.78
2022-12-24T19:34:58.193Z,61.66
2022-12-24T19:37:30.804Z,61.21
2022-12-24T19:40:03.332Z,60.89
2022-12-24T19:42:36.312Z,60.41
2022-12-24T19:45:10.469Z,59.80
2022-12-24T19:47:42.976Z,59.67
2022-12-24T19:50:16.091Z,59.64
2022-12-24T19:52:49.509Z,57.55
2022-12-24T19:55:23.284Z,56.72
2022-12-24T19:57:56.318Z,57.99
2022-12-24T20:00:28.993Z,59.58
2022-12-24T20:03:01.691Z,64.46
2022-12-24T20:05:34.587Z,66.75
2022-12-24T20:08:07.486Z,65.77
2022-12-24T20:10:44.183Z,64.44
2022-12-24T20:13:16.747Z,63.70
2022-12-24T20:15:49.976Z,62.85
2022-12-24T20:18:23.096Z,62.31
2022-12-24T20:20:59.270Z,61.90
2022-12-24T20:23:34.996Z,61.29
2022-12-24T20:26:10.779Z,61.79
2022-12-24T20:28:44.033Z,61.73
2022-12-24T20:31:18.907Z,61.23
2022-12-24T20:33:52.141Z,60.83
2022-12-24T20:36:26.279Z,60.13
2022-12-24T20:39:00.627Z,60.07
2022-12-24T20:41:34.159Z,59.83
2022-12-24T20:44:06.789Z,60.00
2022-12-24T20:46:39.323Z,59.83
2022-12-24T20:49:13.965Z,59.85
2022-12-24T20:51:46.549Z,59.53
2022-12-24T20:54:21.053Z,58.03
2022-12-24T20:56:57.896Z,57.41
2022-12-24T20:59:31.626Z,59.02
2022-12-24T21:02:04.473Z,63.81
2022-12-24T21:04:37.475Z,66.83
2022-12-24T21:07:09.972Z,65.24
2022-12-24T21:09:42.529Z,63.96
2022-12-24T21:12:33.301Z,62.87
2022-12-24T21:15:06.643Z,62.49
2022-12-24T21:17:39.241Z,61.57
2022-12-24T21:20:13.848Z,61.34
2022-12-24T21:22:46.812Z,60.92
2022-12-24T21:25:20.060Z,60.60
2022-12-24T21:27:53.284Z,60.52
2022-12-24T21:30:26.447Z,60.39
2022-12-24T21:32:59.055Z,60.17
2022-12-24T21:35:31.635Z,60.02
2022-12-24T21:38:04.130Z,59.96
2022-12-24T21:40:37.496Z,60.09
2022-12-24T21:43:10.160Z,60.06
2022-12-24T21:45:44.321Z,59.86
2022-12-24T21:48:30.817Z,59.76
2022-12-24T21:51:03.322Z,59.80
2022-12-24T21:53:53.501Z,59.55
2022-12-24T21:56:25.986Z,58.64
2022-12-24T21:58:59.288Z,57.24
2022-12-24T22:01:31.942Z,58.44
2022-12-24T22:04:04.519Z,63.07
2022-12-24T22:06:54.538Z,65.44
2022-12-24T22:09:44.351Z,64.16
2022-12-24T22:12:16.921Z,62.95
2022-12-24T22:14:50.921Z,62.33
2022-12-24T22:17:25.701Z,61.93
2022-12-24T22:19:59.880Z,61.44
2022-12-24T22:22:32.478Z,60.92
2022-12-24T22:25:05.304Z,60.40
2022-12-24T22:27:37.819Z,60.37
2022-12-24T22:30:12.156Z,60.58
2022-12-24T22:32:45.815Z,60.09
2022-12-24T22:35:18.649Z,59.60
2022-12-24T22:37:57.729Z,57.41
2022-12-24T22:40:32.643Z,58.06
2022-12-24T22:43:05.797Z,59.26
2022-12-24T22:45:39.605Z,63.79
2022-12-24T22:48:12.230Z,66.39
2022-12-24T22:50:44.773Z,64.88
2022-12-24T22:53:17.258Z,63.67
2022-12-24T22:55:57.964Z,62.76
2022-12-24T22:58:30.640Z,62.38
2022-12-24T23:01:03.694Z,62.02
2022-12-24T23:03:36.763Z,61.58
2022-12-24T23:06:10.991Z,61.25
2022-12-24T23:08:44.185Z,60.82
2022-12-24T23:11:17.492Z,60.40
2022-12-24T23:14:07.457Z,60.05
2022-12-24T23:16:41.060Z,59.86
2022-12-24T23:19:14.020Z,59.62
2022-12-24T23:21:46.631Z,60.02
2022-12-24T23:24:19.147Z,60.22
2022-12-24T23:26:51.731Z,59.68
2022-12-24T23:29:24.841Z,57.50
2022-12-24T23:31:57.478Z,56.90
2022-12-24T23:34:29.978Z,58.18
2022-12-24T23:37:02.500Z,59.92
2022-12-24T23:39:34.961Z,64.78
2022-12-24T23:42:08.208Z,67.25
2022-12-24T23:44:40.910Z,65.64
2022-12-24T23:47:13.462Z,63.75
2022-12-24T23:49:46.128Z,62.10
2022-12-24T23:52:19.273Z,60.98
2022-12-24T23:54:51.740Z,60.04
2022-12-24T23:57:24.649Z,57.61
2022-12-24T23:59:57.139Z,56.61
